Time,TemperatureF,DewpointF,PressureIn,WindDirection,WindDirectionDegrees,WindSpeedMPH,WindSpeedGustMPH,Humidity,HourlyPrecipIn,Conditions,Clouds,dailyrainin,SoftwareType,DateUTC
2013-04-12 00:07:00,39.7,39.2,30.47,SSW,202,2.2,-999.0,98,-99.99,,,0.00,Acu-Link.com,2013-04-12 04:07:00,
2013-04-12 00:22:00,39.6,39.0,30.47,NNE,22,4.3,-999.0,98,-99.99,,,0.00,Acu-Link.com,2013-04-12 04:22:00,
2013-04-12 00:37:00,39.2,38.7,30.47,NE,45,4.7,-999.0,98,-99.99,,,0.00,Acu-Link.com,2013-04-12 04:37:00,
2013-04-12 00:53:00,38.8,38.3,30.45,ESE,112,2.7,-999.0,98,-99.99,,,0.00,Acu-Link.com,2013-04-12 04:53:00,
2013-04-12 01:08:00,38.5,38.0,30.44,East,90,3.8,-999.0,98,-99.99,,,0.00,Acu-Link.com,2013-04-12 05:08:00,
2013-04-12 01:23:00,38.3,37.8,30.44,East,90,3.8,-999.0,98,-99.99,,,0.00,Acu-Link.com,2013-04-12 05:23:00,
2013-04-12 01:38:00,37.8,37.2,30.43,NW,315,4.3,-999.0,98,-99.99,,,0.00,Acu-Link.com,2013-04-12 05:38:00,
2013-04-12 01:53:00,37.8,37.2,30.44,East,90,3.8,-999.0,98,-99.99,,,0.00,Acu-Link.com,2013-04-12 05:53:00,
2013-04-12 02:09:00,37.6,37.1,30.45,NNE,22,4.3,-999.0,98,-99.99,,,0.00,Acu-Link.com,2013-04-12 06:09:00,
2013-04-12 02:24:00,37.4,36.9,30.44,East,90,3.1,-999.0,98,-99.99,,,0.00,Acu-Link.com,2013-04-12 06:24:00,
2013-04-12 02:39:00,37.6,37.1,30.43,WNW,292,3.8,-999.0,98,-99.99,,,0.00,Acu-Link.com,2013-04-12 06:39:00,
2013-04-12 02:54:00,37.6,37.1,30.43,ENE,67,2.7,-999.0,98,-99.99,,,0.00,Acu-Link.com,2013-04-12 06:54:00,
2013-04-12 03:09:00,37.8,37.2,30.42,East,90,4.7,-999.0,98,-99.99,,,0.00,Acu-Link.com,2013-04-12 07:09:00,
2013-04-12 03:25:00,37.8,37.2,30.41,NE,45,6.3,-999.0,98,-99.99,,,0.00,Acu-Link.com,2013-04-12 07:25:00,
2013-04-12 03:40:00,37.6,37.1,30.42,ENE,67,4.3,-999.0,98,-99.99,,,0.00,Acu-Link.com,2013-04-12 07:40:00,
2013-04-12 03:55:00,37.6,37.1,30.42,NE,45,4.7,-999.0,98,-99.99,,,0.00,Acu-Link.com,2013-04-12 07:55:00,
2013-04-12 04:11:00,37.6,37.1,30.42,NNE,22,3.8,-999.0,98,-99.99,,,0.00,Acu-Link.com,2013-04-12 08:11:00,
2013-04-12 04:26:00,37.8,37.2,30.42,North,0,4.7,-999.0,98,-99.99,,,0.00,Acu-Link.com,2013-04-12 08:26:00,
2013-04-12 04:42:00,37.8,37.2,30.41,WNW,292,4.3,-999.0,98,-99.99,,,0.00,Acu-Link.com,2013-04-12 08:42:00,
2013-04-12 04:57:00,37.9,37.4,30.41,ESE,112,6.7,-999.0,98,-99.99,,,0.00,Acu-Link.com,2013-04-12 08:57:00,
2013-04-12 05:12:00,37.9,37.4,30.40,ENE,67,4.7,-999.0,98,-99.99,,,0.00,Acu-Link.com,2013-04-12 09:12:00,
2013-04-12 05:27:00,38.1,37.6,30.40,ESE,112,2.2,-999.0,98,-99.99,,,0.00,Acu-Link.com,2013-04-12 09:27:00,
2013-04-12 05:43:00,38.3,37.8,30.41,NE,45,3.1,-999.0,98,-99.99,,,0.00,Acu-Link.com,2013-04-12 09:43:00,
2013-04-12 05:58:00,38.5,38.0,30.40,ESE,112,8.9,-999.0,98,-99.99,,,0.00,Acu-Link.com,2013-04-12 09:58:00,
2013-04-12 06:13:00,38.3,37.8,30.40,NE,45,3.1,-999.0,98,-99.99,,,0.00,Acu-Link.com,2013-04-12 10:13:00,
2013-04-12 06:28:00,38.5,38.0,30.41,ENE,67,9.8,-999.0,98,-99.99,,,0.00,Acu-Link.com,2013-04-12 10:28:00,
2013-04-12 06:43:00,38.7,38.1,30.39,NE,45,5.1,-999.0,98,-99.99,,,0.00,Acu-Link.com,2013-04-12 10:43:00,
2013-04-12 06:59:00,39.0,38.5,30.39,East,90,5.8,-999.0,98,-99.99,,,0.00,Acu-Link.com,2013-04-12 10:59:00,
2013-04-12 07:14:00,40.3,39.8,30.38,ENE,67,9.4,-999.0,98,-99.99,,,0.00,Acu-Link.com,2013-04-12 11:14:00,
2013-04-12 07:29:00,39.4,38.9,30.38,NE,45,5.1,-999.0,98,-99.99,,,0.00,Acu-Link.com,2013-04-12 11:29:00,
2013-04-12 07:44:00,39.6,38.0,30.37,ENE,67,5.8,-999.0,94,-99.99,,,0.00,Acu-Link.com,2013-04-12 11:44:00,
2013-04-12 07:59:00,39.7,39.2,30.38,NNE,22,7.4,-999.0,98,-99.99,,,0.00,Acu-Link.com,2013-04-12 11:59:00,
2013-04-12 08:15:00,40.1,39.6,30.37,East,90,10.3,-999.0,98,-99.99,,,0.00,Acu-Link.com,2013-04-12 12:15:00,
2013-04-12 08:30:00,39.4,38.6,30.36,ENE,67,5.8,-999.0,97,-99.99,,,0.00,Acu-Link.com,2013-04-12 12:30:00,
2013-04-12 08:45:00,38.8,38.3,30.36,ENE,67,3.8,-999.0,98,-99.99,,,0.00,Acu-Link.com,2013-04-12 12:45:00,
2013-04-12 09:00:00,38.3,37.8,30.35,East,90,4.7,-999.0,98,-99.99,,,0.01,Acu-Link.com,2013-04-12 13:00:00,
2013-04-12 09:15:00,37.8,37.2,30.35,East,90,13.0,-999.0,98,-99.99,,,0.01,Acu-Link.com,2013-04-12 13:15:00,
2013-04-12 09:31:00,37.4,36.9,30.33,NNE,22,3.8,-999.0,98,-99.99,,,0.04,Acu-Link.com,2013-04-12 13:31:00,
2013-04-12 10:01:00,36.9,36.3,30.32,East,90,9.8,-999.0,98,-99.99,,,0.07,Acu-Link.com,2013-04-12 14:01:00,
2013-04-12 10:16:00,36.7,36.2,30.32,ESE,112,1.6,-999.0,98,-99.99,,,0.10,Acu-Link.com,2013-04-12 14:16:00,
2013-04-12 10:47:00,36.3,35.8,30.31,NE,45,5.8,-999.0,98,-99.99,,,0.17,Acu-Link.com,2013-04-12 14:47:00,
2013-04-12 11:02:00,36.7,36.2,30.30,SSE,157,3.8,-999.0,98,-99.99,,,0.26,Acu-Link.com,2013-04-12 15:02:00,
2013-04-12 11:17:00,36.5,36.0,30.32,East,90,5.1,-999.0,98,-99.99,,,0.30,Acu-Link.com,2013-04-12 15:17:00,
2013-04-12 11:32:00,36.7,36.2,30.33,SSE,157,1.6,-999.0,98,-99.99,,,0.42,Acu-Link.com,2013-04-12 15:32:00,
2013-04-12 11:48:00,36.9,36.3,30.32,SE,135,3.8,-999.0,98,-99.99,,,0.48,Acu-Link.com,2013-04-12 15:48:00,
2013-04-12 12:03:00,37.0,36.5,30.32,East,90,4.7,-999.0,98,-99.99,,,0.52,Acu-Link.com,2013-04-12 16:03:00,
2013-04-12 12:18:00,37.2,36.7,30.32,East,90,3.1,-999.0,98,-99.99,,,0.54,Acu-Link.com,2013-04-12 16:18:00,
2013-04-12 12:33:00,37.4,36.9,30.30,North,0,2.2,-999.0,98,-99.99,,,0.57,Acu-Link.com,2013-04-12 16:33:00,
2013-04-12 12:48:00,37.8,37.2,30.29,NE,45,5.8,-999.0,98,-99.99,,,0.59,Acu-Link.com,2013-04-12 16:48:00,
2013-04-12 13:19:00,37.8,37.2,30.26,ENE,67,4.7,-999.0,98,-99.99,,,0.60,Acu-Link.com,2013-04-12 17:19:00,
2013-04-12 13:34:00,37.9,37.4,30.26,East,90,11.0,-999.0,98,-99.99,,,0.63,Acu-Link.com,2013-04-12 17:34:00,
2013-04-12 13:49:00,37.9,37.4,30.25,East,90,11.0,-999.0,98,-99.99,,,0.65,Acu-Link.com,2013-04-12 17:49:00,
2013-04-12 14:05:00,37.6,37.1,30.23,NE,45,6.7,-999.0,98,-99.99,,,0.66,Acu-Link.com,2013-04-12 18:05:00,
2013-04-12 15:37:00,37.4,36.9,30.18,NE,45,8.3,-999.0,98,-99.99,,,0.66,Acu-Link.com,2013-04-12 19:37:00,
2013-04-12 15:52:00,37.8,37.2,30.17,East,90,11.9,-999.0,98,-99.99,,,0.67,Acu-Link.com,2013-04-12 19:52:00,
2013-04-12 16:07:00,38.1,37.6,30.17,NE,45,5.8,-999.0,98,-99.99,,,0.67,Acu-Link.com,2013-04-12 20:07:00,
2013-04-12 16:22:00,37.9,37.4,30.16,NE,45,4.7,-999.0,98,-99.99,,,0.68,Acu-Link.com,2013-04-12 20:22:00,
2013-04-12 16:37:00,37.9,37.4,30.16,SE,135,5.8,-999.0,98,-99.99,,,0.68,Acu-Link.com,2013-04-12 20:37:00,
2013-04-12 16:54:00,38.1,37.6,30.15,ENE,67,3.8,-999.0,98,-99.99,,,0.68,Acu-Link.com,2013-04-12 20:54:00,
2013-04-12 17:09:00,37.9,37.4,30.15,NE,45,6.7,-999.0,98,-99.99,,,0.68,Acu-Link.com,2013-04-12 21:09:00,
2013-04-12 17:24:00,37.9,37.4,30.15,ENE,67,5.1,-999.0,98,-99.99,,,0.69,Acu-Link.com,2013-04-12 21:24:00,
2013-04-12 17:39:00,38.1,37.6,30.14,NNW,337,4.7,-999.0,98,-99.99,,,0.69,Acu-Link.com,2013-04-12 21:39:00,
2013-04-12 17:55:00,38.1,37.6,30.14,NW,315,2.7,-999.0,98,-99.99,,,0.69,Acu-Link.com,2013-04-12 21:55:00,
2013-04-12 18:10:00,37.8,37.2,30.14,East,90,7.8,-999.0,98,-99.99,,,0.70,Acu-Link.com,2013-04-12 22:10:00,
2013-04-12 18:25:00,37.6,37.1,30.14,East,90,6.3,-999.0,98,-99.99,,,0.70,Acu-Link.com,2013-04-12 22:25:00,
2013-04-12 18:40:00,37.4,36.9,30.14,NE,45,6.7,-999.0,98,-99.99,,,0.70,Acu-Link.com,2013-04-12 22:40:00,
2013-04-12 18:55:00,37.2,36.7,30.14,ENE,67,2.7,-999.0,98,-99.99,,,0.70,Acu-Link.com,2013-04-12 22:55:00,
2013-04-12 19:11:00,36.9,36.3,30.15,NE,45,6.7,-999.0,98,-99.99,,,0.70,Acu-Link.com,2013-04-12 23:11:00,
2013-04-12 19:41:00,36.5,36.0,30.13,ESE,112,6.7,-999.0,98,-99.99,,,0.70,Acu-Link.com,2013-04-12 23:41:00,
2013-04-12 19:56:00,36.5,36.0,30.12,SSE,157,4.7,-999.0,98,-99.99,,,0.70,Acu-Link.com,2013-04-12 23:56:00,
2013-04-12 20:11:00,36.3,35.8,30.12,East,90,5.8,-999.0,98,-99.99,,,0.70,Acu-Link.com,2013-04-13 00:11:00,
2013-04-12 20:42:00,36.1,35.6,30.13,NE,45,5.1,-999.0,98,-99.99,,,0.72,Acu-Link.com,2013-04-13 00:42:00,
2013-04-12 20:57:00,36.1,35.6,30.13,NE,45,4.3,-999.0,98,-99.99,,,0.72,Acu-Link.com,2013-04-13 00:57:00,
2013-04-12 21:12:00,36.0,35.5,30.12,NE,45,4.7,-999.0,98,-99.99,,,0.72,Acu-Link.com,2013-04-13 01:12:00,
2013-04-12 21:27:00,36.0,35.5,30.12,ESE,112,2.7,-999.0,98,-99.99,,,0.72,Acu-Link.com,2013-04-13 01:27:00,
2013-04-12 21:43:00,36.0,35.5,30.12,NNE,22,4.3,-999.0,98,-99.99,,,0.72,Acu-Link.com,2013-04-13 01:43:00,
2013-04-12 21:58:00,35.6,35.1,30.13,NE,45,4.7,-999.0,98,-99.99,,,0.72,Acu-Link.com,2013-04-13 01:58:00,
2013-04-12 22:13:00,35.6,35.1,30.12,NE,45,5.8,-999.0,98,-99.99,,,0.72,Acu-Link.com,2013-04-13 02:13:00,
2013-04-12 22:28:00,35.4,34.9,30.11,NE,45,3.8,-999.0,98,-99.99,,,0.72,Acu-Link.com,2013-04-13 02:28:00,
2013-04-12 22:44:00,35.4,34.9,30.12,West,270,4.7,-999.0,98,-99.99,,,0.72,Acu-Link.com,2013-04-13 02:44:00,
2013-04-12 22:59:00,35.4,34.9,30.12,ENE,67,4.3,-999.0,98,-99.99,,,0.72,Acu-Link.com,2013-04-13 02:59:00,
2013-04-12 23:14:00,35.4,34.9,30.13,ENE,67,1.6,-999.0,98,-99.99,,,0.72,Acu-Link.com,2013-04-13 03:14:00,
2013-04-12 23:29:00,35.4,34.9,30.11,NE,45,11.9,-999.0,98,-99.99,,,0.72,Acu-Link.com,2013-04-13 03:29:00,
2013-04-12 23:45:00,35.2,34.7,30.11,NE,45,2.2,-999.0,98,-99.99,,,0.72,Acu-Link.com,2013-04-13 03:45:00,